CheckWX is a tool to help pilots better visualize weather data.  It is not intended as a substitute for an official pre-flight weather briefing.

05:45:54 UTC

KDLH TAF
Duluth International Airport
Duluth, Minnesota, USA
KDLH 280525Z 2806/2906 33005KT P6SM SKC FM281800 31009KT P6SM SKC

Feb-28@
06:00 UTC

Feb-28 @ 06:00 UTC

Feb-28@
18:00 UTC

Feb-28 @ 18:00 UTC

KDLH 280525Z 2806/2906 33005KT P6SM SKC
Wind
  • 330° at 5 KTS
Cloud Levels
  • Clear skies

Feb-28@
18:00 UTC

Feb-28 @ 18:00 UTC

Feb-29@
06:00 UTC

Feb-29 @ 06:00 UTC

FM281800 31009KT P6SM SKC

From

From Standard forecast or significant change

Wind
  • 310° at 9 KTS
Cloud Levels
  • Clear skies